Hermann - S — V2EI6 — position and weather

sailwx.info

Track history (hours):
 
Tides and Currents Weather Stations Pressure Air Temp Water Temp Dewpoint Dewpoint Depression Visibility Wind Speed Wind Dir Waves Ship Positions

Hermann - S

Last reported at 2015-Aug-04 18:09 UTC. Time now 2015-Aug-05 08:29 UTC.
Position N 41°33' E 029°29'.

Length 190 m; draft 6.5 m.

Type: Cargo ship. MMSI: 305441000.

Date/timePositionNaut miles runAvg speedWind from/ knotsBaromVisibWave heightAir tempDewpointWater temp
2015-Aug-04 18:09N 41°33' E 029°29'814.2
2015-Aug-04 17:33N 41°26' E 029°23'3411.3
2015-Aug-04 14:33N 40°57' E 028°59'9 7.7
2015-Aug-04 13:25N 40°51' E 028°51'6 5.0
2015-Aug-04 12:16N 40°48' E 028°45'1 0.7
2015-Aug-04 11:27N 40°47' E 028°45'1 0.7
2015-Aug-04 10:33N 40°47' E 028°46'1 0.7
2015-Aug-04 09:26N 40°47' E 028°47'1 0.8
2015-Aug-04 08:33N 40°47' E 028°48'258 9.1
2015-Aug-03 04:21N 37°57' E 024°38'1011.6
2015-Aug-03 03:29N 37°48' E 024°33'264 9.4
2015-Aug-01 23:16N 39°32' E 019°23'2414.0
2015-Aug-01 21:33N 39°54' E 019°10'  
Track history (hours):
 
Tides and Currents Weather Stations Pressure Air Temp Water Temp Dewpoint Dewpoint Depression Visibility Wind Speed Wind Dir Waves Ship Positions

Hermann - S

Last reported at 2015-Aug-04 18:09 UTC. Time now 2015-Aug-05 08:29 UTC.
Position N 41°33' E 029°29'.

Length 190 m; draft 6.5 m.

Type: Cargo ship. MMSI: 305441000.

Date/timePositionNaut miles runAvg speedWind from/ knotsBaromVisibWave heightAir tempDewpointWater temp
2015-Aug-04 18:09N 41°33' E 029°29'814.2
2015-Aug-04 17:33N 41°26' E 029°23'3411.3
2015-Aug-04 14:33N 40°57' E 028°59'9 7.7
2015-Aug-04 13:25N 40°51' E 028°51'6 5.0
2015-Aug-04 12:16N 40°48' E 028°45'1 0.7
2015-Aug-04 11:27N 40°47' E 028°45'1 0.7
2015-Aug-04 10:33N 40°47' E 028°46'1 0.7
2015-Aug-04 09:26N 40°47' E 028°47'1 0.8
2015-Aug-04 08:33N 40°47' E 028°48'258 9.1
2015-Aug-03 04:21N 37°57' E 024°38'1011.6
2015-Aug-03 03:29N 37°48' E 024°33'264 9.4
2015-Aug-01 23:16N 39°32' E 019°23'2414.0
2015-Aug-01 21:33N 39°54' E 019°10'  

Dump ship's entire track history